sensor_id;sensor_type;location;lat;lon;timestamp;temperature;humidity
58153;DHT22;43967;51.634;5.566;2023-04-02T00:04:19;18.00;76.80
58153;DHT22;43967;51.634;5.566;2023-04-02T00:09:41;18.00;76.70
58153;DHT22;43967;51.634;5.566;2023-04-02T00:15:02;17.90;76.40
58153;DHT22;43967;51.634;5.566;2023-04-02T00:20:25;17.90;76.30
58153;DHT22;43967;51.634;5.566;2023-04-02T00:25:47;17.90;76.10
58153;DHT22;43967;51.634;5.566;2023-04-02T00:31:09;17.90;76.10
58153;DHT22;43967;51.634;5.566;2023-04-02T00:36:32;17.90;75.80
58153;DHT22;43967;51.634;5.566;2023-04-02T00:41:55;17.80;75.60
58153;DHT22;43967;51.634;5.566;2023-04-02T00:47:23;17.80;75.60
58153;DHT22;43967;51.634;5.566;2023-04-02T00:52:48;17.80;75.50
58153;DHT22;43967;51.634;5.566;2023-04-02T00:58:25;17.80;75.40
58153;DHT22;43967;51.634;5.566;2023-04-02T01:04:01;17.80;75.20
58153;DHT22;43967;51.634;5.566;2023-04-02T01:09:57;17.80;75.20
58153;DHT22;43967;51.634;5.566;2023-04-02T01:15:28;17.80;75.10
58153;DHT22;43967;51.634;5.566;2023-04-02T01:31:52;17.70;74.60
58153;DHT22;43967;51.634;5.566;2023-04-02T01:37:52;17.70;74.60
58153;DHT22;43967;51.634;5.566;2023-04-02T01:43:43;17.70;74.40
58153;DHT22;43967;51.634;5.566;2023-04-02T01:49:24;17.70;74.40
58153;DHT22;43967;51.634;5.566;2023-04-02T01:54:46;17.70;74.30
58153;DHT22;43967;51.634;5.566;2023-04-02T02:00:10;17.60;74.10
58153;DHT22;43967;51.634;5.566;2023-04-02T02:05:32;17.60;74.00
58153;DHT22;43967;51.634;5.566;2023-04-02T02:10:54;17.70;74.00
58153;DHT22;43967;51.634;5.566;2023-04-02T02:16:16;17.70;73.90
58153;DHT22;43967;51.634;5.566;2023-04-02T02:21:42;17.70;74.00
58153;DHT22;43967;51.634;5.566;2023-04-02T02:32:48;17.70;74.80
58153;DHT22;43967;51.634;5.566;2023-04-02T02:38:36;17.70;75.00
58153;DHT22;43967;51.634;5.566;2023-04-02T02:49:32;17.70;75.10
58153;DHT22;43967;51.634;5.566;2023-04-02T02:54:59;17.70;75.20
58153;DHT22;43967;51.634;5.566;2023-04-02T03:00:24;17.70;75.00
58153;DHT22;43967;51.634;5.566;2023-04-02T03:05:52;17.70;74.70
58153;DHT22;43967;51.634;5.566;2023-04-02T03:11:28;17.70;74.10
58153;DHT22;43967;51.634;5.566;2023-04-02T03:16:59;17.70;73.90
58153;DHT22;43967;51.634;5.566;2023-04-02T03:22:34;17.70;73.60
58153;DHT22;43967;51.634;5.566;2023-04-02T03:28:13;17.70;73.40
58153;DHT22;43967;51.634;5.566;2023-04-02T03:33:42;17.70;73.40
58153;DHT22;43967;51.634;5.566;2023-04-02T03:55:29;17.60;72.80
58153;DHT22;43967;51.634;5.566;2023-04-02T04:01:04;17.60;72.80
58153;DHT22;43967;51.634;5.566;2023-04-02T04:06:31;17.60;72.70
58153;DHT22;43967;51.634;5.566;2023-04-02T04:17:47;17.60;72.50
58153;DHT22;43967;51.634;5.566;2023-04-02T04:23:20;17.60;72.40
58153;DHT22;43967;51.634;5.566;2023-04-02T04:29:33;17.60;72.30
58153;DHT22;43967;51.634;5.566;2023-04-02T04:34:40;17.50;72.10
58153;DHT22;43967;51.634;5.566;2023-04-02T04:40:18;17.50;72.00
58153;DHT22;43967;51.634;5.566;2023-04-02T04:45:49;17.50;72.00
58153;DHT22;43967;51.634;5.566;2023-04-02T04:51:32;17.50;72.50
58153;DHT22;43967;51.634;5.566;2023-04-02T04:57:01;17.50;72.80
58153;DHT22;43967;51.634;5.566;2023-04-02T05:02:28;17.50;73.00
58153;DHT22;43967;51.634;5.566;2023-04-02T05:07:56;17.50;73.10
58153;DHT22;43967;51.634;5.566;2023-04-02T05:13:20;17.50;73.30
58153;DHT22;43967;51.634;5.566;2023-04-02T05:18:48;17.60;73.40
58153;DHT22;43967;51.634;5.566;2023-04-02T05:24:37;17.60;73.40
58153;DHT22;43967;51.634;5.566;2023-04-02T05:30:14;17.60;73.30
58153;DHT22;43967;51.634;5.566;2023-04-02T05:35:44;17.60;73.10
58153;DHT22;43967;51.634;5.566;2023-04-02T05:41:51;17.60;72.60
58153;DHT22;43967;51.634;5.566;2023-04-02T05:52:29;17.60;72.00
58153;DHT22;43967;51.634;5.566;2023-04-02T05:58:06;17.60;71.90
58153;DHT22;43967;51.634;5.566;2023-04-02T06:03:44;17.50;71.70
58153;DHT22;43967;51.634;5.566;2023-04-02T06:14:34;17.50;71.50
58153;DHT22;43967;51.634;5.566;2023-04-02T06:19:57;17.50;71.40
58153;DHT22;43967;51.634;5.566;2023-04-02T06:25:29;17.50;71.30
58153;DHT22;43967;51.634;5.566;2023-04-02T06:30:53;17.50;71.20
58153;DHT22;43967;51.634;5.566;2023-04-02T06:36:17;17.50;71.10
58153;DHT22;43967;51.634;5.566;2023-04-02T06:41:39;17.40;70.90
58153;DHT22;43967;51.634;5.566;2023-04-02T06:47:38;17.40;70.80
58153;DHT22;43967;51.634;5.566;2023-04-02T06:53:04;17.40;71.10
58153;DHT22;43967;51.634;5.566;2023-04-02T06:58:26;17.40;71.30
58153;DHT22;43967;51.634;5.566;2023-04-02T07:03:47;17.40;71.50
58153;DHT22;43967;51.634;5.566;2023-04-02T07:09:08;17.40;71.60
58153;DHT22;43967;51.634;5.566;2023-04-02T07:14:30;17.40;71.70
58153;DHT22;43967;51.634;5.566;2023-04-02T07:19:51;17.40;71.90
58153;DHT22;43967;51.634;5.566;2023-04-02T07:25:12;17.50;72.00
58153;DHT22;43967;51.634;5.566;2023-04-02T07:30:34;17.50;72.10
58153;DHT22;43967;51.634;5.566;2023-04-02T07:35:56;17.50;72.00
58153;DHT22;43967;51.634;5.566;2023-04-02T07:41:18;17.50;71.90
58153;DHT22;43967;51.634;5.566;2023-04-02T07:46:40;17.50;72.50
58153;DHT22;43967;51.634;5.566;2023-04-02T07:52:01;17.50;71.60
58153;DHT22;43967;51.634;5.566;2023-04-02T07:57:22;17.50;71.50
58153;DHT22;43967;51.634;5.566;2023-04-02T08:02:44;17.50;71.30
58153;DHT22;43967;51.634;5.566;2023-04-02T08:08:05;17.50;70.80
58153;DHT22;43967;51.634;5.566;2023-04-02T08:13:26;17.50;70.70
58153;DHT22;43967;51.634;5.566;2023-04-02T08:18:48;17.50;70.50
58153;DHT22;43967;51.634;5.566;2023-04-02T08:24:09;17.40;70.30
58153;DHT22;43967;51.634;5.566;2023-04-02T08:29:30;17.40;70.20
58153;DHT22;43967;51.634;5.566;2023-04-02T08:34:51;17.40;70.10
58153;DHT22;43967;51.634;5.566;2023-04-02T08:40:28;17.30;69.90
58153;DHT22;43967;51.634;5.566;2023-04-02T08:51:43;17.40;69.70
58153;DHT22;43967;51.634;5.566;2023-04-02T09:02:39;17.40;70.10
58153;DHT22;43967;51.634;5.566;2023-04-02T09:08:02;17.40;71.90
58153;DHT22;43967;51.634;5.566;2023-04-02T09:13:26;17.50;74.40
58153;DHT22;43967;51.634;5.566;2023-04-02T09:18:50;17.60;75.40
58153;DHT22;43967;51.634;5.566;2023-04-02T09:24:12;17.60;75.50
58153;DHT22;43967;51.634;5.566;2023-04-02T09:29:45;17.60;75.40
58153;DHT22;43967;51.634;5.566;2023-04-02T09:35:19;17.60;71.00
58153;DHT22;43967;51.634;5.566;2023-04-02T09:46:24;17.70;75.50
58153;DHT22;43967;51.634;5.566;2023-04-02T09:51:49;17.70;74.90
58153;DHT22;43967;51.634;5.566;2023-04-02T09:57:25;17.80;74.70
58153;DHT22;43967;51.634;5.566;2023-04-02T10:08:25;17.80;74.80
58153;DHT22;43967;51.634;5.566;2023-04-02T10:13:59;17.80;74.80
58153;DHT22;43967;51.634;5.566;2023-04-02T10:24:48;17.80;74.70
58153;DHT22;43967;51.634;5.566;2023-04-02T10:30:19;17.80;74.70
58153;DHT22;43967;51.634;5.566;2023-04-02T10:41:31;17.80;74.60
58153;DHT22;43967;51.634;5.566;2023-04-02T10:52:33;17.70;74.20
58153;DHT22;43967;51.634;5.566;2023-04-02T10:58:04;17.70;73.80
58153;DHT22;43967;51.634;5.566;2023-04-02T11:03:40;17.70;73.30
58153;DHT22;43967;51.634;5.566;2023-04-02T11:09:09;17.60;73.00
58153;DHT22;43967;51.634;5.566;2023-04-02T11:14:33;17.60;72.80
58153;DHT22;43967;51.634;5.566;2023-04-02T11:32:57;17.60;72.20
58153;DHT22;43967;51.634;5.566;2023-04-02T11:37:55;17.60;71.90
58153;DHT22;43967;51.634;5.566;2023-04-02T11:48:52;17.50;71.60
58153;DHT22;43967;51.634;5.566;2023-04-02T11:54:25;17.50;71.50
58153;DHT22;43967;51.634;5.566;2023-04-02T12:06:22;17.50;71.10
58153;DHT22;43967;51.634;5.566;2023-04-02T12:11:46;17.40;71.00
58153;DHT22;43967;51.634;5.566;2023-04-02T12:17:38;17.50;69.70
58153;DHT22;43967;51.634;5.566;2023-04-02T12:23:00;17.50;68.40
58153;DHT22;43967;51.634;5.566;2023-04-02T12:28:21;17.50;68.30
58153;DHT22;43967;51.634;5.566;2023-04-02T12:33:43;17.50;67.50
58153;DHT22;43967;51.634;5.566;2023-04-02T12:39:15;17.40;67.50
58153;DHT22;43967;51.634;5.566;2023-04-02T12:44:37;17.40;68.40
58153;DHT22;43967;51.634;5.566;2023-04-02T12:49:59;17.40;68.70
58153;DHT22;43967;51.634;5.566;2023-04-02T12:55:23;17.30;68.70
58153;DHT22;43967;51.634;5.566;2023-04-02T13:00:45;17.30;68.30
58153;DHT22;43967;51.634;5.566;2023-04-02T13:06:22;17.40;66.30
58153;DHT22;43967;51.634;5.566;2023-04-02T13:11:44;17.40;66.80
58153;DHT22;43967;51.634;5.566;2023-04-02T13:17:38;17.40;67.80
58153;DHT22;43967;51.634;5.566;2023-04-02T13:34:22;17.40;68.60
58153;DHT22;43967;51.634;5.566;2023-04-02T13:39:44;17.40;68.80
58153;DHT22;43967;51.634;5.566;2023-04-02T13:45:15;17.40;68.90
58153;DHT22;43967;51.634;5.566;2023-04-02T13:50:39;17.40;69.00
58153;DHT22;43967;51.634;5.566;2023-04-02T13:56:01;17.50;69.10
58153;DHT22;43967;51.634;5.566;2023-04-02T14:01:23;17.50;69.00
58153;DHT22;43967;51.634;5.566;2023-04-02T14:24:19;17.50;68.60
58153;DHT22;43967;51.634;5.566;2023-04-02T14:35:53;17.50;68.40
58153;DHT22;43967;51.634;5.566;2023-04-02T14:47:26;17.50;68.30
58153;DHT22;43967;51.634;5.566;2023-04-02T14:52:50;17.50;68.20
58153;DHT22;43967;51.634;5.566;2023-04-02T14:58:37;17.50;68.10
58153;DHT22;43967;51.634;5.566;2023-04-02T15:04:07;17.50;68.00
58153;DHT22;43967;51.634;5.566;2023-04-02T15:09:41;17.50;68.00
58153;DHT22;43967;51.634;5.566;2023-04-02T15:15:23;17.50;68.00
58153;DHT22;43967;51.634;5.566;2023-04-02T15:21:22;17.40;67.90
58153;DHT22;43967;51.634;5.566;2023-04-02T15:38:19;17.50;68.10
58153;DHT22;43967;51.634;5.566;2023-04-02T15:44:13;17.40;67.90
58153;DHT22;43967;51.634;5.566;2023-04-02T15:49:59;17.40;67.90
58153;DHT22;43967;51.634;5.566;2023-04-02T15:55:36;17.40;67.90
58153;DHT22;43967;51.634;5.566;2023-04-02T16:01:37;17.40;67.90
58153;DHT22;43967;51.634;5.566;2023-04-02T16:07:20;17.40;67.90
58153;DHT22;43967;51.634;5.566;2023-04-02T16:12:44;17.40;67.90
58153;DHT22;43967;51.634;5.566;2023-04-02T16:18:29;17.40;67.80
58153;DHT22;43967;51.634;5.566;2023-04-02T16:23:52;17.40;67.80
58153;DHT22;43967;51.634;5.566;2023-04-02T16:29:30;17.40;67.80
58153;DHT22;43967;51.634;5.566;2023-04-02T16:35:16;17.40;67.80
58153;DHT22;43967;51.634;5.566;2023-04-02T16:52:51;17.40;67.80
58153;DHT22;43967;51.634;5.566;2023-04-02T17:04:36;17.30;67.80
58153;DHT22;43967;51.634;5.566;2023-04-02T17:10:03;17.30;67.70
58153;DHT22;43967;51.634;5.566;2023-04-02T17:15:37;17.30;67.70
58153;DHT22;43967;51.634;5.566;2023-04-02T17:21:07;17.30;67.40
58153;DHT22;43967;51.634;5.566;2023-04-02T17:26:32;17.30;67.40
58153;DHT22;43967;51.634;5.566;2023-04-02T17:31:57;17.30;67.60
58153;DHT22;43967;51.634;5.566;2023-04-02T17:37:37;17.30;67.80
58153;DHT22;43967;51.634;5.566;2023-04-02T17:43:18;17.30;67.80
58153;DHT22;43967;51.634;5.566;2023-04-02T17:48:47;17.30;67.90
58153;DHT22;43967;51.634;5.566;2023-04-02T17:54:30;17.30;67.90
58153;DHT22;43967;51.634;5.566;2023-04-02T18:05:53;17.40;68.00
58153;DHT22;43967;51.634;5.566;2023-04-02T18:11:34;17.40;68.00
58153;DHT22;43967;51.634;5.566;2023-04-02T18:17:16;17.40;67.90
58153;DHT22;43967;51.634;5.566;2023-04-02T18:28:30;17.40;67.60
58153;DHT22;43967;51.634;5.566;2023-04-02T18:39:30;17.40;67.50
58153;DHT22;43967;51.634;5.566;2023-04-02T18:45:02;17.40;67.40
58153;DHT22;43967;51.634;5.566;2023-04-02T18:50:34;17.40;67.30
58153;DHT22;43967;51.634;5.566;2023-04-02T18:56:05;17.30;67.20
58153;DHT22;43967;51.634;5.566;2023-04-02T19:01:40;17.30;67.10
58153;DHT22;43967;51.634;5.566;2023-04-02T19:07:09;17.30;66.90
58153;DHT22;43967;51.634;5.566;2023-04-02T19:12:32;17.30;66.80
58153;DHT22;43967;51.634;5.566;2023-04-02T19:18:09;17.30;66.70
58153;DHT22;43967;51.634;5.566;2023-04-02T19:23:54;17.30;66.80
58153;DHT22;43967;51.634;5.566;2023-04-02T19:35:01;17.30;67.00
58153;DHT22;43967;51.634;5.566;2023-04-02T19:40:33;17.30;67.10
58153;DHT22;43967;51.634;5.566;2023-04-02T19:45:57;17.30;67.20
58153;DHT22;43967;51.634;5.566;2023-04-02T19:51:18;17.30;67.40
58153;DHT22;43967;51.634;5.566;2023-04-02T19:56:39;17.30;67.50
58153;DHT22;43967;51.634;5.566;2023-04-02T20:02:00;17.40;68.20
58153;DHT22;43967;51.634;5.566;2023-04-02T20:07:22;17.40;67.60
58153;DHT22;43967;51.634;5.566;2023-04-02T20:12:43;17.40;67.60
58153;DHT22;43967;51.634;5.566;2023-04-02T20:18:04;17.40;67.60
58153;DHT22;43967;51.634;5.566;2023-04-02T20:23:26;17.40;67.60
58153;DHT22;43967;51.634;5.566;2023-04-02T20:28:47;17.50;67.80
58153;DHT22;43967;51.634;5.566;2023-04-02T20:34:08;17.50;67.80
58153;DHT22;43967;51.634;5.566;2023-04-02T20:39:30;17.50;67.80
58153;DHT22;43967;51.634;5.566;2023-04-02T20:44:51;17.50;67.70
58153;DHT22;43967;51.634;5.566;2023-04-02T20:50:12;17.50;67.60
58153;DHT22;43967;51.634;5.566;2023-04-02T20:55:34;17.50;67.50
58153;DHT22;43967;51.634;5.566;2023-04-02T21:01:07;17.50;67.40
58153;DHT22;43967;51.634;5.566;2023-04-02T21:06:34;17.50;67.20
58153;DHT22;43967;51.634;5.566;2023-04-02T21:11:56;17.50;67.10
58153;DHT22;43967;51.634;5.566;2023-04-02T21:17:17;17.40;66.90
58153;DHT22;43967;51.634;5.566;2023-04-02T21:22:38;17.40;66.70
58153;DHT22;43967;51.634;5.566;2023-04-02T21:27:59;17.40;66.60
58153;DHT22;43967;51.634;5.566;2023-04-02T21:33:21;17.40;66.60
58153;DHT22;43967;51.634;5.566;2023-04-02T21:38:44;17.40;66.40
58153;DHT22;43967;51.634;5.566;2023-04-02T21:44:08;17.40;66.40
58153;DHT22;43967;51.634;5.566;2023-04-02T21:49:29;17.40;66.40
58153;DHT22;43967;51.634;5.566;2023-04-02T21:54:50;17.30;66.30
58153;DHT22;43967;51.634;5.566;2023-04-02T22:00:12;17.30;66.20
58153;DHT22;43967;51.634;5.566;2023-04-02T22:05:33;17.30;66.30
58153;DHT22;43967;51.634;5.566;2023-04-02T22:10:55;17.30;66.10
58153;DHT22;43967;51.634;5.566;2023-04-02T22:16:21;17.20;66.10
58153;DHT22;43967;51.634;5.566;2023-04-02T22:21:43;17.20;66.10
58153;DHT22;43967;51.634;5.566;2023-04-02T22:27:04;17.20;66.30
58153;DHT22;43967;51.634;5.566;2023-04-02T22:32:26;17.30;66.40
58153;DHT22;43967;51.634;5.566;2023-04-02T22:37:47;17.20;66.50
58153;DHT22;43967;51.634;5.566;2023-04-02T22:43:08;17.30;66.80
58153;DHT22;43967;51.634;5.566;2023-04-02T22:48:30;17.20;66.80
58153;DHT22;43967;51.634;5.566;2023-04-02T22:53:53;17.30;66.90
58153;DHT22;43967;51.634;5.566;2023-04-02T22:59:14;17.30;67.00
58153;DHT22;43967;51.634;5.566;2023-04-02T23:04:36;17.30;67.00
58153;DHT22;43967;51.634;5.566;2023-04-02T23:09:57;17.30;67.10
58153;DHT22;43967;51.634;5.566;2023-04-02T23:15:19;17.30;66.90
58153;DHT22;43967;51.634;5.566;2023-04-02T23:20:40;17.30;66.90
58153;DHT22;43967;51.634;5.566;2023-04-02T23:31:33;17.30;66.60
58153;DHT22;43967;51.634;5.566;2023-04-02T23:36:55;17.30;66.40
58153;DHT22;43967;51.634;5.566;2023-04-02T23:42:16;17.30;66.20
58153;DHT22;43967;51.634;5.566;2023-04-02T23:47:37;17.30;66.00
58153;DHT22;43967;51.634;5.566;2023-04-02T23:52:58;17.30;65.90
58153;DHT22;43967;51.634;5.566;2023-04-02T23:58:20;17.30;65.90
